Terminal Aerodrome Forecast
Issued by NWS

Home | Current Version | Previous Version | Text Only | Print | Product List | Glossary Off
Versions: 1 2 3 4 5 6 7 8 9 10 11 12 13 14 15 16 17

000
FTUS43 KFGF 291700
TAFBJI
TAF
KBJI 291720Z 2918/3018 31025G32KT P6SM BKN023
     FM292200 30017G24KT P6SM BKN035
     FM300000 30008KT P6SM SCT035=

USA.gov is the U.S. government's official web portal to all federal, state and local government web resources and services.